createdAt,value
2022-12-17T00:00:51.596Z,101806.94
2022-12-17T00:03:37.819Z,101808.97
2022-12-17T00:06:23.550Z,101806.88
2022-12-17T00:09:08.789Z,101812.09
2022-12-17T00:11:54.175Z,101813.66
2022-12-17T00:14:44.432Z,101818.69
2022-12-17T00:17:29.757Z,101816.13
2022-12-17T00:20:15.148Z,101825.75
2022-12-17T00:23:00.464Z,101829.78
2022-12-17T00:25:45.912Z,101833.41
2022-12-17T00:28:31.701Z,101832.84
2022-12-17T00:31:17.091Z,101826.38
2022-12-17T00:34:02.428Z,101830.09
2022-12-17T00:36:47.665Z,101821.16
2022-12-17T00:39:33.002Z,101831.28
2022-12-17T00:42:17.928Z,101832.16
2022-12-17T00:45:03.281Z,101836.63
2022-12-17T00:47:48.948Z,101839.56
2022-12-17T00:50:35.724Z,101847.47
2022-12-17T00:53:21.157Z,101854.16
2022-12-17T00:56:06.387Z,101854.28
2022-12-17T00:58:51.812Z,101860.06
2022-12-17T01:01:37.216Z,101854.69
2022-12-17T01:04:22.684Z,101856.38
2022-12-17T01:07:08.730Z,101867.91
2022-12-17T01:09:58.221Z,101874.63
2022-12-17T01:12:43.449Z,101879.72
2022-12-17T01:15:29.583Z,101882.53
2022-12-17T01:18:14.805Z,101881.13
2022-12-17T01:21:00.082Z,101884.09
2022-12-17T01:23:45.462Z,101886.38
2022-12-17T01:26:30.737Z,101887.16
2022-12-17T01:29:16.458Z,101896.75
2022-12-17T01:32:01.797Z,101895.69
2022-12-17T01:34:47.191Z,101894.50
2022-12-17T01:37:32.517Z,101884.31
2022-12-17T01:40:17.857Z,101893.03
2022-12-17T01:43:06.292Z,101897.19
2022-12-17T01:46:00.685Z,101903.63
2022-12-17T01:48:59.593Z,101899.13
2022-12-17T01:51:45.440Z,101906.19
2022-12-17T01:54:31.265Z,101908.03
2022-12-17T01:57:17.160Z,101905.88
2022-12-17T02:00:19.278Z,101910.66
2022-12-17T02:03:05.033Z,101905.94
2022-12-17T02:05:56.870Z,101907.34
2022-12-17T02:08:54.235Z,101907.53
2022-12-17T02:11:56.597Z,101913.06
2022-12-17T02:14:50.164Z,101918.47
2022-12-17T02:17:40.590Z,101914.75
2022-12-17T02:20:49.745Z,101910.06
2022-12-17T02:23:56.665Z,101906.59
2022-12-17T02:26:54.508Z,101903.56
2022-12-17T02:29:41.541Z,101910.53
2022-12-17T02:32:28.292Z,101908.09
2022-12-17T02:35:13.777Z,101907.50
2022-12-17T02:38:05.368Z,101908.38
2022-12-17T02:40:56.887Z,101918.03
2022-12-17T02:43:43.042Z,101914.09
2022-12-17T02:46:28.917Z,101918.59
2022-12-17T02:49:27.840Z,101920.75
2022-12-17T02:52:13.290Z,101922.00
2022-12-17T02:54:58.583Z,101926.00
2022-12-17T02:58:01.101Z,101926.13
2022-12-17T03:00:46.474Z,101928.81
2022-12-17T03:03:31.917Z,101929.34
2022-12-17T03:06:17.417Z,101930.56
2022-12-17T03:09:02.837Z,101936.28
2022-12-17T03:11:48.875Z,101942.16
2022-12-17T03:14:34.627Z,101946.06
2022-12-17T03:17:19.954Z,101937.34
2022-12-17T03:20:05.350Z,101948.69
2022-12-17T03:22:50.832Z,101950.56
2022-12-17T03:25:36.139Z,101945.31
2022-12-17T03:28:23.354Z,101958.06
2022-12-17T03:31:08.776Z,101949.69
2022-12-17T03:33:54.144Z,101952.00
2022-12-17T03:36:39.483Z,101955.09
2022-12-17T03:39:24.804Z,101955.72
2022-12-17T03:42:10.052Z,101958.28
2022-12-17T03:44:55.445Z,101962.53
2022-12-17T03:47:40.613Z,101973.28
2022-12-17T03:50:26.434Z,101973.94
2022-12-17T03:53:11.763Z,101972.03
2022-12-17T03:55:57.006Z,101983.06
2022-12-17T03:58:42.360Z,101994.56
2022-12-17T04:01:27.752Z,101986.25
2022-12-17T04:04:13.175Z,101985.16
2022-12-17T04:06:58.605Z,101997.34
2022-12-17T04:09:43.958Z,102002.41
2022-12-17T04:12:29.217Z,102002.31
2022-12-17T04:15:14.524Z,102012.56
2022-12-17T04:18:00.141Z,102012.13
2022-12-17T04:20:45.382Z,102014.81
2022-12-17T04:23:30.744Z,102008.09
2022-12-17T04:26:15.910Z,102012.13
2022-12-17T04:29:01.067Z,102019.59
2022-12-17T04:32:00.105Z,102018.72
2022-12-17T04:34:45.392Z,102022.81
2022-12-17T04:37:30.834Z,102023.13
2022-12-17T04:40:16.079Z,102030.19
2022-12-17T04:43:01.432Z,102028.09
2022-12-17T04:45:46.669Z,102028.59
2022-12-17T04:48:32.037Z,102030.19
2022-12-17T04:51:17.316Z,102021.81
2022-12-17T04:54:02.536Z,102035.88
2022-12-17T04:56:47.940Z,102023.13
2022-12-17T04:59:33.107Z,102031.88
2022-12-17T05:02:18.651Z,102036.13
2022-12-17T05:05:03.943Z,102035.66
2022-12-17T05:07:49.401Z,102030.84
2022-12-17T05:10:34.622Z,102048.34
2022-12-17T05:13:20.542Z,102042.50
2022-12-17T05:16:05.909Z,102037.38
2022-12-17T05:18:51.154Z,102046.84
2022-12-17T05:21:36.466Z,102040.88
2022-12-17T05:24:21.846Z,102049.91
2022-12-17T05:27:07.275Z,102046.22
2022-12-17T05:29:52.536Z,102049.91
2022-12-17T05:32:37.847Z,102057.00
2022-12-17T05:35:27.612Z,102055.88
2022-12-17T05:38:22.901Z,102054.25
2022-12-17T05:41:08.286Z,102054.41
2022-12-17T05:43:53.531Z,102070.00
2022-12-17T05:46:38.857Z,102073.41
2022-12-17T05:49:27.420Z,102074.38
2022-12-17T05:52:12.692Z,102091.94
2022-12-17T05:54:58.200Z,102092.47
2022-12-17T05:57:43.641Z,102096.34
2022-12-17T06:00:29.311Z,102101.53
2022-12-17T06:03:22.747Z,102107.00
2022-12-17T06:06:13.019Z,102107.06
2022-12-17T06:08:58.360Z,102106.00
2022-12-17T06:11:43.742Z,102116.78
2022-12-17T06:14:29.167Z,102110.91
2022-12-17T06:17:14.601Z,102116.50
2022-12-17T06:19:59.782Z,102109.22
2022-12-17T06:22:48.020Z,102114.50
2022-12-17T06:25:33.275Z,102120.41
2022-12-17T06:28:19.492Z,102126.38
2022-12-17T06:31:12.113Z,102127.59
2022-12-17T06:33:58.087Z,102132.28
2022-12-17T06:36:43.934Z,102141.34
2022-12-17T06:39:29.488Z,102131.97
2022-12-17T06:42:14.785Z,102134.50
2022-12-17T06:45:00.030Z,102135.31
2022-12-17T06:47:45.177Z,102143.19
2022-12-17T06:50:30.351Z,102151.81
2022-12-17T06:53:23.696Z,102156.22
2022-12-17T06:56:08.999Z,102158.34
2022-12-17T06:58:54.413Z,102163.41
2022-12-17T07:01:39.783Z,102175.84
2022-12-17T07:04:25.322Z,102180.75
2022-12-17T07:07:13.139Z,102175.84
2022-12-17T07:09:59.149Z,102177.75
2022-12-17T07:12:44.409Z,102195.13
2022-12-17T07:15:29.813Z,102195.06
2022-12-17T07:18:20.176Z,102187.34
2022-12-17T07:21:06.624Z,102200.81
2022-12-17T07:23:55.143Z,102207.25
2022-12-17T07:26:40.256Z,102210.91
2022-12-17T07:29:25.774Z,102206.19
2022-12-17T07:32:11.062Z,102207.50
2022-12-17T07:34:56.657Z,102205.53
2022-12-17T07:37:49.508Z,102207.75
2022-12-17T07:40:34.951Z,102216.66
2022-12-17T07:43:20.233Z,102224.41
2022-12-17T07:46:05.607Z,102222.69
2022-12-17T07:48:50.914Z,102241.03
2022-12-17T07:51:36.123Z,102244.00
2022-12-17T07:54:21.475Z,102248.56
2022-12-17T07:57:06.672Z,102245.81
2022-12-17T07:59:52.105Z,102249.72
2022-12-17T08:02:37.644Z,102260.81
2022-12-17T08:05:23.165Z,102262.56
2022-12-17T08:08:11.460Z,102261.09
2022-12-17T08:10:56.709Z,102260.06
2022-12-17T08:13:42.103Z,102261.53
2022-12-17T08:16:27.503Z,102268.31
2022-12-17T08:19:12.802Z,102260.78
2022-12-17T08:21:58.138Z,102265.94
2022-12-17T08:24:43.373Z,102267.44
2022-12-17T08:27:28.756Z,102276.00
2022-12-17T08:30:14.065Z,102267.41
2022-12-17T08:32:59.389Z,102270.81
2022-12-17T08:35:44.682Z,102283.19
2022-12-17T08:38:30.081Z,102281.03
2022-12-17T08:41:15.536Z,102285.97
2022-12-17T08:44:00.917Z,102292.94
2022-12-17T08:46:46.218Z,102291.63
2022-12-17T08:49:31.460Z,102286.03
2022-12-17T08:52:16.664Z,102289.13
2022-12-17T08:55:01.955Z,102293.81
2022-12-17T08:57:47.181Z,102300.31
2022-12-17T09:00:33.078Z,102296.19
2022-12-17T09:03:19.408Z,102298.16
2022-12-17T09:06:05.401Z,102302.78
2022-12-17T09:08:51.297Z,102308.50
2022-12-17T09:11:36.662Z,102311.94
2022-12-17T09:14:22.039Z,102313.16
2022-12-17T09:17:07.672Z,102316.31
2022-12-17T09:19:52.977Z,102318.25
2022-12-17T09:22:38.567Z,102321.19
2022-12-17T09:25:24.314Z,102315.19
2022-12-17T09:28:09.674Z,102314.41
2022-12-17T09:30:54.886Z,102312.47
2022-12-17T09:33:42.844Z,102313.09
2022-12-17T09:36:28.736Z,102320.72
2022-12-17T09:39:14.313Z,102319.03
2022-12-17T09:42:05.627Z,102323.56
2022-12-17T09:45:03.831Z,102332.53
2022-12-17T09:48:08.052Z,102325.78
2022-12-17T09:50:53.468Z,102332.38
2022-12-17T09:53:47.554Z,102331.94
2022-12-17T09:56:33.953Z,102335.94
2022-12-17T09:59:19.183Z,102335.81
2022-12-17T10:02:04.734Z,102336.84
2022-12-17T10:04:57.284Z,102341.41
2022-12-17T10:07:45.246Z,102345.41
2022-12-17T10:10:40.338Z,102343.47
2022-12-17T10:13:37.798Z,102335.56
2022-12-17T10:16:54.836Z,102344.50
2022-12-17T10:19:47.792Z,102347.34
2022-12-17T10:22:38.895Z,102343.75
2022-12-17T10:25:38.182Z,102348.44
2022-12-17T10:28:33.656Z,102349.41
2022-12-17T10:31:20.036Z,102346.81
2022-12-17T10:34:05.319Z,102343.81
2022-12-17T10:36:50.700Z,102350.69
2022-12-17T10:39:42.431Z,102360.25
2022-12-17T10:42:47.866Z,102360.56
2022-12-17T10:45:37.235Z,102362.09
2022-12-17T10:48:22.847Z,102374.41
2022-12-17T10:51:08.127Z,102377.22
2022-12-17T10:53:53.586Z,102375.91
2022-12-17T10:56:45.004Z,102381.41
2022-12-17T10:59:31.911Z,102385.03
2022-12-17T11:02:17.460Z,102383.72
2022-12-17T11:05:12.065Z,102380.31
2022-12-17T11:08:00.484Z,102375.41
2022-12-17T11:10:48.858Z,102375.31
2022-12-17T11:13:44.055Z,102389.72
2022-12-17T11:16:37.204Z,102394.63
2022-12-17T11:19:28.764Z,102389.75
2022-12-17T11:22:17.143Z,102386.44
2022-12-17T11:25:24.672Z,102390.47
2022-12-17T11:28:22.540Z,102390.59
2022-12-17T11:31:14.691Z,102395.50
2022-12-17T11:34:14.787Z,102402.41
2022-12-17T11:37:16.869Z,102403.72
2022-12-17T11:40:11.258Z,102410.38
2022-12-17T11:43:02.957Z,102415.84
2022-12-17T11:45:53.003Z,102413.66
2022-12-17T11:48:52.618Z,102421.03
2022-12-17T11:51:45.339Z,102411.88
2022-12-17T11:54:36.240Z,102419.03
2022-12-17T11:57:43.654Z,102416.97
2022-12-17T12:00:36.031Z,102419.81
2022-12-17T12:03:43.751Z,102419.84
2022-12-17T12:06:37.185Z,102409.75
2022-12-17T12:09:31.751Z,102419.91
2022-12-17T12:12:37.424Z,102412.47
2022-12-17T12:15:50.193Z,102414.25
2022-12-17T12:19:01.221Z,102418.84
2022-12-17T12:21:53.926Z,102427.84
2022-12-17T12:25:01.039Z,102421.38
2022-12-17T12:27:55.476Z,102423.47
2022-12-17T12:30:43.495Z,102427.94
2022-12-17T12:33:41.821Z,102440.84
2022-12-17T12:36:29.724Z,102439.22
2022-12-17T12:39:18.285Z,102443.38
2022-12-17T12:42:07.688Z,102442.03
2022-12-17T12:44:55.932Z,102440.78
2022-12-17T12:47:53.100Z,102445.38
2022-12-17T12:50:43.411Z,102452.03
2022-12-17T12:53:30.826Z,102442.75
2022-12-17T12:56:16.127Z,102455.06
2022-12-17T12:59:01.309Z,102447.94
2022-12-17T13:01:57.152Z,102464.44
2022-12-17T13:04:53.108Z,102457.72
2022-12-17T13:07:24.539Z,102461.63
2022-12-17T13:09:54.875Z,102461.81
2022-12-17T13:12:45.816Z,102462.25
2022-12-17T13:15:26.040Z,102472.53
2022-12-17T13:18:05.388Z,102466.38
2022-12-17T13:20:34.040Z,102467.34
2022-12-17T13:23:09.808Z,102476.00
2022-12-17T13:25:36.658Z,102466.09
2022-12-17T13:28:03.862Z,102481.16
2022-12-17T13:30:37.849Z,102481.00
2022-12-17T13:33:44.881Z,102480.06
2022-12-17T13:36:20.764Z,102488.78
2022-12-17T13:38:59.037Z,102482.34
2022-12-17T13:41:34.347Z,102484.19
2022-12-17T13:44:18.366Z,102486.88
2022-12-17T13:46:48.034Z,102489.31
2022-12-17T13:49:26.267Z,102491.16
2022-12-17T13:52:11.177Z,102492.59
2022-12-17T13:54:38.398Z,102502.34
2022-12-17T13:57:10.286Z,102498.16
2022-12-17T13:59:37.052Z,102505.81
2022-12-17T14:02:05.109Z,102519.66
2022-12-17T14:04:32.598Z,102520.53
2022-12-17T14:07:02.755Z,102523.94
2022-12-17T14:09:39.884Z,102523.81
2022-12-17T14:12:22.404Z,102528.06
2022-12-17T14:15:00.183Z,102540.91
2022-12-17T14:17:28.794Z,102537.09
2022-12-17T14:20:05.778Z,102540.94
2022-12-17T14:22:40.321Z,102524.75
2022-12-17T14:25:16.835Z,102514.72
2022-12-17T14:27:53.400Z,102532.81
2022-12-17T14:30:21.720Z,102528.28
2022-12-17T14:32:48.759Z,102534.84
2022-12-17T14:35:27.314Z,102533.94
2022-12-17T14:37:54.157Z,102540.19
2022-12-17T14:40:21.486Z,102532.53
2022-12-17T14:42:48.448Z,102547.13
2022-12-17T14:45:14.973Z,102543.44
2022-12-17T14:47:55.796Z,102557.56
2022-12-17T14:50:22.560Z,102558.13
2022-12-17T14:52:54.032Z,102558.00
2022-12-17T14:55:22.625Z,102563.91
2022-12-17T14:57:50.672Z,102561.31
2022-12-17T15:00:17.477Z,102559.97
2022-12-17T15:02:45.066Z,102563.78
2022-12-17T15:05:15.922Z,102566.63
2022-12-17T15:07:42.856Z,102568.78
2022-12-17T15:10:14.922Z,102575.06
2022-12-17T15:12:43.231Z,102575.91
2022-12-17T15:15:14.758Z,102574.50
2022-12-17T15:17:41.941Z,102580.41
2022-12-17T15:20:16.908Z,102576.44
2022-12-17T15:22:45.219Z,102583.59
2022-12-17T15:25:17.123Z,102589.88
2022-12-17T15:27:44.055Z,102589.97
2022-12-17T15:30:15.739Z,102592.59
2022-12-17T15:32:42.727Z,102600.75
2022-12-17T15:35:11.583Z,102597.69
2022-12-17T15:37:38.591Z,102606.78
2022-12-17T15:40:06.788Z,102604.94
2022-12-17T15:42:52.239Z,102609.91
2022-12-17T15:45:19.589Z,102608.66
2022-12-17T15:47:46.475Z,102603.50
2022-12-17T15:50:13.140Z,102609.00
2022-12-17T15:52:40.054Z,102607.19
2022-12-17T15:55:07.201Z,102607.19
2022-12-17T15:57:33.863Z,102607.19
2022-12-17T16:00:00.577Z,102606.97
2022-12-17T16:02:27.425Z,102612.53
2022-12-17T16:04:54.231Z,102615.22
2022-12-17T16:07:20.886Z,102612.88
2022-12-17T16:09:47.616Z,102606.16
2022-12-17T16:12:14.333Z,102606.59
2022-12-17T16:14:41.032Z,102614.72
2022-12-17T16:17:07.916Z,102617.75
2022-12-17T16:19:34.603Z,102617.66
2022-12-17T16:22:01.229Z,102626.41
2022-12-17T16:24:27.986Z,102630.25
2022-12-17T16:26:57.117Z,102627.28
2022-12-17T16:29:26.181Z,102623.19
2022-12-17T16:31:53.158Z,102615.22
2022-12-17T16:34:19.871Z,102618.50
2022-12-17T16:36:46.588Z,102619.06
2022-12-17T16:39:16.606Z,102619.69
2022-12-17T16:41:45.005Z,102625.88
2022-12-17T16:44:11.759Z,102634.69
2022-12-17T16:46:40.263Z,102638.47
2022-12-17T16:49:09.145Z,102646.13
2022-12-17T16:51:36.282Z,102633.38
2022-12-17T16:54:09.108Z,102639.31
2022-12-17T16:56:39.872Z,102637.50
2022-12-17T16:59:08.415Z,102650.03
2022-12-17T17:01:36.141Z,102639.47
2022-12-17T17:04:04.825Z,102637.84
2022-12-17T17:06:33.816Z,102640.34
2022-12-17T17:09:04.365Z,102648.38
2022-12-17T17:11:31.352Z,102644.28
2022-12-17T17:13:58.382Z,102640.63
2022-12-17T17:16:25.806Z,102641.78
2022-12-17T17:18:53.673Z,102644.88
2022-12-17T17:21:20.300Z,102653.19
2022-12-17T17:23:59.862Z,102650.56
2022-12-17T17:26:27.764Z,102659.00
2022-12-17T17:28:54.681Z,102658.84
2022-12-17T17:31:22.062Z,102672.16
2022-12-17T17:33:50.584Z,102672.06
2022-12-17T17:36:19.934Z,102668.56
2022-12-17T17:38:47.563Z,102673.31
2022-12-17T17:41:19.997Z,102675.50
2022-12-17T17:43:47.036Z,102674.59
2022-12-17T17:46:15.864Z,102673.19
2022-12-17T17:48:44.280Z,102680.56
2022-12-17T17:51:21.327Z,102692.44
2022-12-17T17:53:57.007Z,102685.44
2022-12-17T17:56:34.380Z,102685.84
2022-12-17T17:59:06.034Z,102689.47
2022-12-17T18:01:37.218Z,102689.91
2022-12-17T18:04:05.540Z,102696.56
2022-12-17T18:06:32.749Z,102692.28
2022-12-17T18:09:00.077Z,102696.84
2022-12-17T18:11:29.119Z,102693.66
2022-12-17T18:13:57.332Z,102698.41
2022-12-17T18:16:26.638Z,102698.50
2022-12-17T18:18:55.315Z,102699.16
2022-12-17T18:21:25.533Z,102697.81
2022-12-17T18:23:56.773Z,102707.97
2022-12-17T18:26:24.660Z,102713.13
2022-12-17T18:28:51.551Z,102712.03
2022-12-17T18:31:23.827Z,102710.00
2022-12-17T18:33:52.853Z,102709.09
2022-12-17T18:36:22.404Z,102710.88
2022-12-17T18:38:55.731Z,102713.28
2022-12-17T18:41:44.794Z,102711.84
2022-12-17T18:44:13.228Z,102715.97
2022-12-17T18:46:40.082Z,102717.00
2022-12-17T18:49:10.566Z,102725.22
2022-12-17T18:51:38.999Z,102726.19
2022-12-17T18:54:09.525Z,102723.56
2022-12-17T18:57:00.506Z,102724.94
2022-12-17T18:59:29.060Z,102734.28
2022-12-17T19:01:56.763Z,102742.16
2022-12-17T19:04:24.497Z,102735.75
2022-12-17T19:06:53.765Z,102737.09
2022-12-17T19:09:21.808Z,102750.75
2022-12-17T19:11:49.248Z,102749.09
2022-12-17T19:14:17.452Z,102753.75
2022-12-17T19:16:44.902Z,102755.47
2022-12-17T19:19:12.702Z,102759.06
2022-12-17T19:21:39.793Z,102759.97
2022-12-17T19:24:08.201Z,102763.84
2022-12-17T19:26:35.027Z,102758.63
2022-12-17T19:29:02.305Z,102751.53
2022-12-17T19:31:32.634Z,102764.88
2022-12-17T19:34:02.564Z,102773.16
2022-12-17T19:36:32.936Z,102769.88
2022-12-17T19:39:02.988Z,102772.63
2022-12-17T19:41:32.021Z,102778.94
2022-12-17T19:44:01.603Z,102778.03
2022-12-17T19:46:29.395Z,102785.09
2022-12-17T19:48:57.294Z,102781.97
2022-12-17T19:51:26.399Z,102785.44
2022-12-17T19:53:54.217Z,102792.34
2022-12-17T19:56:27.979Z,102790.03
2022-12-17T19:58:57.177Z,102795.84
2022-12-17T20:01:35.440Z,102795.69
2022-12-17T20:04:02.662Z,102791.72
2022-12-17T20:06:31.796Z,102789.19
2022-12-17T20:08:59.414Z,102794.25
2022-12-17T20:11:36.025Z,102804.34
2022-12-17T20:14:13.713Z,102802.91
2022-12-17T20:16:49.388Z,102807.47
2022-12-17T20:19:18.563Z,102799.31
2022-12-17T20:21:45.388Z,102805.66
2022-12-17T20:24:12.444Z,102811.63
2022-12-17T20:26:39.509Z,102812.53
2022-12-17T20:29:07.198Z,102816.13
2022-12-17T20:31:34.476Z,102812.38
2022-12-17T20:34:02.278Z,102813.91
2022-12-17T20:36:29.655Z,102813.84
2022-12-17T20:38:56.607Z,102820.22
2022-12-17T20:41:25.462Z,102814.66
2022-12-17T20:43:53.072Z,102823.78
2022-12-17T20:46:20.889Z,102822.59
2022-12-17T20:48:47.892Z,102831.88
2022-12-17T20:51:23.093Z,102828.44
2022-12-17T20:53:50.320Z,102830.81
2022-12-17T20:56:19.583Z,102827.28
2022-12-17T20:58:46.680Z,102833.41
2022-12-17T21:01:19.912Z,102832.38
2022-12-17T21:03:47.771Z,102828.38
2022-12-17T21:06:38.547Z,102824.69
2022-12-17T21:09:06.349Z,102833.09
2022-12-17T21:11:34.489Z,102834.28
2022-12-17T21:14:10.140Z,102840.09
2022-12-17T21:16:39.276Z,102843.31
2022-12-17T21:19:08.906Z,102839.69
2022-12-17T21:21:39.350Z,102842.31
2022-12-17T21:24:06.784Z,102837.00
2022-12-17T21:26:39.802Z,102842.13
2022-12-17T21:29:08.405Z,102842.28
2022-12-17T21:31:44.269Z,102849.78
2022-12-17T21:34:14.294Z,102851.44
2022-12-17T21:36:41.323Z,102858.19
2022-12-17T21:39:09.888Z,102866.88
2022-12-17T21:41:42.330Z,102861.69
2022-12-17T21:44:13.144Z,102862.38
2022-12-17T21:46:42.457Z,102863.09
2022-12-17T21:49:09.986Z,102867.34
2022-12-17T21:51:36.949Z,102870.25
2022-12-17T21:54:08.741Z,102867.19
2022-12-17T21:56:37.258Z,102866.69
2022-12-17T21:59:04.249Z,102871.34
2022-12-17T22:01:33.306Z,102873.31
2022-12-17T22:04:02.049Z,102873.63
2022-12-17T22:06:37.623Z,102880.31
2022-12-17T22:09:16.766Z,102876.16
2022-12-17T22:12:13.015Z,102871.69
2022-12-17T22:14:39.681Z,102876.00
2022-12-17T22:17:06.479Z,102887.66
2022-12-17T22:19:33.633Z,102884.66
2022-12-17T22:22:00.629Z,102886.47
2022-12-17T22:24:29.956Z,102888.00
2022-12-17T22:27:03.363Z,102882.38
2022-12-17T22:29:49.198Z,102893.78
2022-12-17T22:32:34.358Z,102898.19
2022-12-17T22:35:49.919Z,102896.19
2022-12-17T22:40:07.632Z,102899.06
2022-12-17T22:44:33.645Z,102911.03
2022-12-17T22:44:42.607Z,102920.09
2022-12-17T22:46:19.344Z,102920.63
2022-12-17T22:48:46.552Z,102929.81
2022-12-17T22:51:22.777Z,102931.91
2022-12-17T22:54:00.938Z,102931.16
2022-12-17T22:56:46.291Z,102939.00
2022-12-17T22:59:16.903Z,102935.56
2022-12-17T23:01:44.283Z,102937.19
2022-12-17T23:04:16.201Z,102943.56
2022-12-17T23:06:48.070Z,102945.09
2022-12-17T23:09:16.041Z,102944.66
2022-12-17T23:11:42.831Z,102941.34
2022-12-17T23:14:09.544Z,102932.50
2022-12-17T23:16:38.455Z,102940.88
2022-12-17T23:19:05.710Z,102940.59
2022-12-17T23:21:35.982Z,102950.31
2022-12-17T23:24:04.400Z,102941.84
2022-12-17T23:26:33.582Z,102951.84
2022-12-17T23:29:02.889Z,102938.97
2022-12-17T23:31:33.487Z,102937.91
2022-12-17T23:34:00.457Z,102948.59
2022-12-17T23:36:27.574Z,102949.31
2022-12-17T23:38:56.429Z,102955.63
2022-12-17T23:41:26.999Z,102956.44
2022-12-17T23:43:54.004Z,102959.84
2022-12-17T23:46:21.384Z,102948.88
2022-12-17T23:48:48.486Z,102956.25
2022-12-17T23:51:17.432Z,102958.31
2022-12-17T23:53:44.164Z,102961.88
2022-12-17T23:56:22.540Z,102952.84
2022-12-17T23:58:53.108Z,102955.25
